Burnips, Michigan
Current Conditions -  °F | °C
As of 7:53 PM on Saturday 22 Nov 2014 (Local Time) from KBIV Reporting Station
Overcast Overcast  
Wind Chill: 51°   Ceiling: 5000
Heat Index: 51°   Visibility: 10mi
Dew Point: 46°   Wind: 20mph
Humidity: 83%   Direction: 220°SW
Pressure: 29.87"   Gusts: 28mph
Location:  42.73°N, 85.84°W
Report Text: KBIV 230053Z AUTO 22017G24KT 10SM FEW020 OVC050 11/08 A2987 RMK AO2 PK WND 21026/0012 SLP117 T01060078
Loading
Personal Weather Stations






























Interactive Weather Map New forecast layout! Learn more

10-Day Weather Forecast

Advertisements
Track Severe Weather on mobile